createdAt,value
2018-12-14T00:01:31.157Z,99.90
2018-12-14T00:04:02.003Z,99.90
2018-12-14T00:06:34.021Z,99.90
2018-12-14T00:09:03.302Z,99.90
2018-12-14T00:11:32.165Z,99.90
2018-12-14T00:14:01.026Z,99.90
2018-12-14T00:16:29.885Z,99.90
2018-12-14T00:18:58.750Z,99.90
2018-12-14T00:21:27.992Z,99.90
2018-12-14T00:23:56.988Z,99.90
2018-12-14T00:26:25.865Z,99.90
2018-12-14T00:28:54.915Z,99.90
2018-12-14T00:31:23.760Z,99.90
2018-12-14T00:33:52.632Z,99.90
2018-12-14T00:36:22.216Z,99.90
2018-12-14T00:38:51.227Z,99.90
2018-12-14T00:41:20.103Z,99.90
2018-12-14T00:43:49.210Z,99.90
2018-12-14T00:46:18.089Z,99.90
2018-12-14T00:48:46.923Z,99.90
2018-12-14T00:51:16.241Z,99.90
2018-12-14T00:53:45.101Z,99.90
2018-12-14T00:56:13.943Z,99.90
2018-12-14T00:58:42.806Z,99.90
2018-12-14T01:01:11.972Z,99.90
2018-12-14T01:03:40.822Z,99.90
2018-12-14T01:06:09.725Z,99.90
2018-12-14T01:08:38.613Z,99.90
2018-12-14T01:11:07.579Z,99.90
2018-12-14T01:13:36.440Z,99.90
2018-12-14T01:16:05.312Z,99.90
2018-12-14T01:18:34.459Z,99.90
2018-12-14T01:21:03.425Z,99.90
2018-12-14T01:23:32.303Z,99.90
2018-12-14T01:26:01.201Z,99.90
2018-12-14T01:28:30.117Z,99.90
2018-12-14T01:30:59.597Z,99.90
2018-12-14T01:33:28.447Z,99.90
2018-12-14T01:35:57.309Z,99.90
2018-12-14T01:38:26.145Z,99.90
2018-12-14T01:40:55.077Z,99.90
2018-12-14T01:43:23.973Z,99.90
2018-12-14T01:45:53.083Z,99.90
2018-12-14T01:48:21.994Z,99.90
2018-12-14T01:50:50.845Z,99.90
2018-12-14T01:53:19.730Z,99.90
2018-12-14T01:55:49.394Z,99.90
2018-12-14T01:58:18.290Z,99.90
2018-12-14T02:00:47.135Z,99.90
2018-12-14T02:03:16.150Z,99.90
2018-12-14T02:05:45.503Z,99.90
2018-12-14T02:08:14.327Z,99.90
2018-12-14T02:10:43.394Z,99.90
2018-12-14T02:13:12.899Z,99.90
2018-12-14T02:15:41.710Z,99.90
2018-12-14T02:18:10.527Z,99.90
2018-12-14T02:20:39.780Z,99.90
2018-12-14T02:23:08.588Z,99.90
2018-12-14T02:25:37.424Z,99.90
2018-12-14T02:28:06.344Z,99.90
2018-12-14T02:30:44.170Z,99.90
2018-12-14T02:33:13.924Z,99.90
2018-12-14T02:35:45.755Z,99.90
2018-12-14T02:38:14.593Z,99.90
2018-12-14T02:40:43.445Z,99.90
2018-12-14T02:43:12.296Z,99.90
2018-12-14T02:45:41.167Z,99.90
2018-12-14T02:48:10.043Z,99.90
2018-12-14T02:50:38.889Z,99.90
2018-12-14T02:53:07.816Z,99.90
2018-12-14T02:55:44.370Z,99.90
2018-12-14T02:58:13.233Z,99.90
2018-12-14T03:00:42.093Z,99.90
2018-12-14T03:03:11.050Z,99.90
2018-12-14T03:05:39.938Z,99.90
2018-12-14T03:08:08.825Z,99.90
2018-12-14T03:10:38.261Z,99.90
2018-12-14T03:13:07.085Z,99.90
2018-12-14T03:15:35.990Z,99.90
2018-12-14T03:18:04.884Z,99.90
2018-12-14T03:20:33.846Z,99.90
2018-12-14T03:23:02.692Z,99.90
2018-12-14T03:25:31.583Z,99.90
2018-12-14T03:28:00.437Z,99.90
2018-12-14T03:30:29.292Z,99.90
2018-12-14T03:32:58.291Z,99.90
2018-12-14T03:35:27.146Z,99.90
2018-12-14T03:37:56.016Z,99.90
2018-12-14T03:40:24.888Z,99.90
2018-12-14T03:42:53.759Z,99.90
2018-12-14T03:45:22.737Z,99.90
2018-12-14T03:47:51.918Z,99.90
2018-12-14T03:50:21.898Z,99.90
2018-12-14T03:52:50.789Z,99.90
2018-12-14T03:55:19.818Z,99.90
2018-12-14T03:57:48.702Z,99.90
2018-12-14T04:00:18.659Z,99.90
2018-12-14T04:02:47.768Z,99.90
2018-12-14T04:05:16.998Z,99.90
2018-12-14T04:07:45.833Z,99.90
2018-12-14T04:10:14.784Z,99.90
2018-12-14T04:12:44.527Z,99.90
2018-12-14T04:15:13.578Z,99.90
2018-12-14T04:17:42.505Z,99.90
2018-12-14T04:20:11.404Z,99.90
2018-12-14T04:22:40.252Z,99.90
2018-12-14T04:25:09.221Z,99.90
2018-12-14T04:27:38.071Z,99.90
2018-12-14T04:30:08.215Z,99.90
2018-12-14T04:32:36.997Z,99.90
2018-12-14T04:35:05.874Z,99.90
2018-12-14T04:37:35.072Z,99.90
2018-12-14T04:40:05.038Z,99.90
2018-12-14T04:42:34.572Z,99.90
2018-12-14T04:50:02.100Z,99.90
2018-12-14T04:52:31.032Z,99.90
2018-12-14T04:54:59.885Z,99.90
2018-12-14T04:57:28.675Z,99.90
2018-12-14T04:59:57.738Z,99.90
2018-12-14T05:02:26.540Z,99.90
2018-12-14T05:04:55.462Z,99.90
2018-12-14T05:07:24.316Z,99.90
2018-12-14T05:09:53.214Z,99.90
2018-12-14T05:12:22.076Z,99.90
2018-12-14T05:14:51.351Z,99.90
2018-12-14T05:17:20.476Z,99.90
2018-12-14T05:19:49.362Z,99.90
2018-12-14T05:22:18.478Z,99.90
2018-12-14T05:24:47.407Z,99.90
2018-12-14T05:27:16.456Z,99.90
2018-12-14T05:29:45.718Z,99.90
2018-12-14T05:32:14.611Z,99.90
2018-12-14T05:34:43.556Z,99.90
2018-12-14T05:37:12.489Z,99.90
2018-12-14T05:39:41.336Z,99.90
2018-12-14T05:42:10.296Z,99.90
2018-12-14T05:44:39.133Z,99.90
2018-12-14T05:47:07.980Z,99.90
2018-12-14T05:49:36.892Z,99.90
2018-12-14T05:52:07.726Z,99.90
2018-12-14T05:54:36.665Z,99.90
2018-12-14T05:57:05.641Z,99.90
2018-12-14T05:59:34.517Z,99.90
2018-12-14T06:02:03.543Z,99.90
2018-12-14T06:04:32.405Z,99.90
2018-12-14T06:07:02.323Z,99.90
2018-12-14T06:09:31.188Z,99.90
2018-12-14T06:12:00.057Z,99.90
2018-12-14T06:14:28.937Z,99.90
2018-12-14T06:16:58.136Z,99.90
2018-12-14T06:19:27.307Z,99.90
2018-12-14T06:21:56.806Z,99.90
2018-12-14T06:24:25.998Z,99.90
2018-12-14T06:26:54.871Z,99.90
2018-12-14T06:29:23.796Z,99.90
2018-12-14T06:31:52.788Z,99.90
2018-12-14T06:34:21.644Z,99.90
2018-12-14T06:36:52.802Z,99.90
2018-12-14T06:39:21.999Z,99.90
2018-12-14T06:41:51.236Z,99.90
2018-12-14T06:44:20.154Z,99.90
2018-12-14T06:46:49.095Z,99.90
2018-12-14T06:49:18.002Z,99.90
2018-12-14T06:51:46.878Z,99.90
2018-12-14T06:54:15.747Z,99.90
2018-12-14T06:56:44.590Z,99.90
2018-12-14T06:59:13.461Z,99.90
2018-12-14T07:01:42.380Z,99.90
2018-12-14T07:04:11.812Z,99.90
2018-12-14T07:06:40.962Z,99.90
2018-12-14T07:09:09.819Z,99.90
2018-12-14T07:11:38.711Z,99.90
2018-12-14T07:14:08.140Z,99.90
2018-12-14T07:16:37.215Z,99.90
2018-12-14T07:19:07.153Z,99.90
2018-12-14T07:21:36.104Z,99.90
2018-12-14T07:24:06.945Z,99.90
2018-12-14T07:26:36.071Z,99.90
2018-12-14T07:29:05.138Z,99.90
2018-12-14T07:31:34.014Z,99.90
2018-12-14T07:34:02.877Z,99.90
2018-12-14T07:36:31.721Z,99.90
2018-12-14T07:39:00.506Z,99.90
2018-12-14T07:41:29.329Z,99.90
2018-12-14T07:43:58.254Z,99.90
2018-12-14T07:46:27.138Z,99.90
2018-12-14T07:48:55.949Z,99.90
2018-12-14T07:51:25.099Z,99.90
2018-12-14T07:53:54.038Z,99.90
2018-12-14T07:56:22.835Z,99.90
2018-12-14T07:58:51.952Z,99.90
2018-12-14T08:01:20.868Z,99.90
2018-12-14T08:03:49.848Z,99.90
2018-12-14T08:06:18.682Z,99.90
2018-12-14T08:08:47.522Z,99.90
2018-12-14T08:11:16.483Z,99.90
2018-12-14T08:13:45.298Z,99.90
2018-12-14T08:16:14.170Z,99.90
2018-12-14T08:18:43.061Z,99.90
2018-12-14T08:21:11.951Z,99.90
2018-12-14T08:23:40.768Z,99.90
2018-12-14T08:26:09.634Z,99.90
2018-12-14T08:28:38.523Z,99.90
2018-12-14T08:31:07.530Z,99.90
2018-12-14T08:33:36.534Z,99.90
2018-12-14T08:36:05.428Z,99.90
2018-12-14T08:38:34.220Z,99.90
2018-12-14T08:41:03.108Z,99.90
2018-12-14T08:43:32.165Z,99.90
2018-12-14T08:46:00.969Z,99.90
2018-12-14T08:48:29.871Z,99.90
2018-12-14T08:50:58.703Z,99.90
2018-12-14T08:53:27.788Z,99.90
2018-12-14T08:55:56.674Z,99.90
2018-12-14T08:58:25.491Z,99.90
2018-12-14T09:00:55.479Z,99.90
2018-12-14T09:03:24.311Z,99.90
2018-12-14T09:05:53.168Z,99.90
2018-12-14T09:08:23.759Z,99.90
2018-12-14T09:10:52.518Z,99.90
2018-12-14T09:13:21.594Z,99.90
2018-12-14T09:15:51.290Z,99.90
2018-12-14T09:18:20.970Z,99.90
2018-12-14T09:20:49.710Z,99.90
2018-12-14T09:23:18.601Z,99.90
2018-12-14T09:25:47.429Z,99.90
2018-12-14T09:28:16.275Z,99.90
2018-12-14T09:30:45.144Z,99.90
2018-12-14T09:33:14.068Z,99.90
2018-12-14T09:35:42.905Z,99.90
2018-12-14T09:38:11.700Z,99.90
2018-12-14T09:40:41.080Z,99.80
2018-12-14T09:43:11.017Z,99.70
2018-12-14T09:45:39.827Z,99.90
2018-12-14T09:48:09.625Z,99.90
2018-12-14T09:50:38.435Z,99.90
2018-12-14T09:53:07.215Z,99.90
2018-12-14T09:55:36.393Z,99.90
2018-12-14T09:58:05.195Z,99.90
2018-12-14T10:00:35.156Z,99.90
2018-12-14T10:03:04.171Z,99.90
2018-12-14T10:05:33.114Z,99.90
2018-12-14T10:08:01.965Z,99.90
2018-12-14T10:10:30.799Z,99.90
2018-12-14T10:12:59.657Z,99.90
2018-12-14T10:15:28.634Z,99.90
2018-12-14T10:17:57.435Z,99.80
2018-12-14T10:20:26.293Z,99.70
2018-12-14T10:22:55.108Z,99.50
2018-12-14T10:25:24.085Z,99.90
2018-12-14T10:27:53.011Z,99.90
2018-12-14T10:30:21.859Z,99.90
2018-12-14T10:32:50.719Z,99.90
2018-12-14T10:35:19.608Z,99.90
2018-12-14T10:37:48.427Z,99.90
2018-12-14T10:40:17.385Z,99.90
2018-12-14T10:42:46.217Z,99.90
2018-12-14T10:45:15.089Z,99.90
2018-12-14T10:47:43.962Z,99.90
2018-12-14T10:50:12.849Z,99.90
2018-12-14T10:52:41.658Z,99.90
2018-12-14T10:55:10.570Z,99.90
2018-12-14T10:57:39.730Z,99.90
2018-12-14T11:00:17.274Z,99.90
2018-12-14T11:02:46.130Z,99.90
2018-12-14T11:05:14.937Z,99.90
2018-12-14T11:07:43.810Z,99.90
2018-12-14T11:10:13.834Z,99.90
2018-12-14T11:12:42.978Z,99.90
2018-12-14T11:15:11.987Z,99.90
2018-12-14T11:17:40.781Z,99.90
2018-12-14T11:20:10.488Z,99.90
2018-12-14T11:22:39.247Z,99.90
2018-12-14T11:25:08.695Z,99.80
2018-12-14T11:27:37.524Z,99.70
2018-12-14T11:30:08.552Z,99.90
2018-12-14T11:32:37.377Z,99.90
2018-12-14T11:35:06.329Z,99.90
2018-12-14T11:37:35.149Z,99.80
2018-12-14T11:40:06.503Z,99.90
2018-12-14T11:42:35.305Z,99.90
2018-12-14T11:45:04.665Z,99.90
2018-12-14T11:47:33.449Z,99.90
2018-12-14T11:50:02.370Z,99.90
2018-12-14T11:52:31.183Z,99.90
2018-12-14T11:55:00.006Z,99.90
2018-12-14T11:57:29.150Z,99.90
2018-12-14T11:59:58.049Z,99.90
2018-12-14T12:02:26.840Z,99.80
2018-12-14T12:04:55.682Z,99.60
2018-12-14T12:07:24.571Z,99.70
2018-12-14T12:09:53.362Z,99.40
2018-12-14T12:12:22.554Z,99.20
2018-12-14T12:14:51.427Z,99.20
2018-12-14T12:17:20.222Z,99.10
2018-12-14T12:19:48.999Z,99.20
2018-12-14T12:22:17.846Z,99.30
2018-12-14T12:24:46.649Z,99.30
2018-12-14T12:27:15.467Z,99.40
2018-12-14T12:29:44.248Z,99.30
2018-12-14T12:32:13.039Z,99.20
2018-12-14T12:34:41.836Z,99.00
2018-12-14T12:37:10.742Z,98.90
2018-12-14T12:39:39.643Z,99.10
2018-12-14T12:42:08.463Z,99.30
2018-12-14T12:44:37.274Z,99.10
2018-12-14T12:47:06.103Z,98.90
2018-12-14T12:49:34.991Z,98.90
2018-12-14T12:52:03.806Z,98.90
2018-12-14T12:54:32.661Z,98.80
2018-12-14T12:57:01.531Z,99.20
2018-12-14T12:59:30.499Z,99.20
2018-12-14T13:01:59.722Z,99.10
2018-12-14T13:04:28.610Z,98.50
2018-12-14T13:06:57.482Z,98.40
2018-12-14T13:09:33.475Z,98.40
2018-12-14T13:12:02.273Z,98.20
2018-12-14T13:14:32.128Z,98.30
2018-12-14T13:17:00.927Z,98.10
2018-12-14T13:19:29.823Z,98.30
2018-12-14T13:21:58.614Z,98.30
2018-12-14T13:24:27.413Z,98.10
2018-12-14T13:26:56.232Z,97.80
2018-12-14T13:29:25.063Z,97.70
2018-12-14T13:31:54.956Z,97.50
2018-12-14T13:34:23.715Z,97.00
2018-12-14T13:36:52.670Z,96.80
2018-12-14T13:39:21.449Z,97.30
2018-12-14T13:41:50.200Z,97.30
2018-12-14T13:44:19.967Z,97.00
2018-12-14T13:46:50.163Z,96.80
2018-12-14T13:49:19.124Z,96.40
2018-12-14T13:51:47.966Z,96.10
2018-12-14T13:54:16.766Z,96.00
2018-12-14T13:56:45.669Z,96.30
2018-12-14T13:59:14.475Z,96.40
2018-12-14T14:01:43.418Z,96.30
2018-12-14T14:04:12.200Z,95.90
2018-12-14T14:06:40.998Z,95.90
2018-12-14T14:09:09.790Z,95.40
2018-12-14T14:11:40.566Z,95.50
2018-12-14T14:14:09.361Z,95.40
2018-12-14T14:16:38.145Z,95.20
2018-12-14T14:19:07.144Z,95.00
2018-12-14T14:21:35.979Z,95.00
2018-12-14T14:24:04.875Z,94.90
2018-12-14T14:26:33.663Z,95.20
2018-12-14T14:29:02.811Z,95.00
2018-12-14T14:31:31.699Z,95.40
2018-12-14T14:34:00.542Z,96.00
2018-12-14T14:36:29.554Z,96.40
2018-12-14T14:38:58.386Z,96.80
2018-12-14T14:41:27.206Z,97.40
2018-12-14T14:43:55.999Z,97.40
2018-12-14T14:46:24.775Z,97.90
2018-12-14T14:48:53.551Z,98.00
2018-12-14T14:51:22.630Z,98.10
2018-12-14T14:53:51.398Z,98.10
2018-12-14T14:56:20.438Z,98.40
2018-12-14T14:58:49.308Z,98.50
2018-12-14T15:01:18.096Z,98.90
2018-12-14T15:03:46.962Z,99.00
2018-12-14T15:06:15.850Z,99.20
2018-12-14T15:08:44.733Z,99.20
2018-12-14T15:11:13.526Z,99.10
2018-12-14T15:13:42.362Z,99.40
2018-12-14T15:16:11.154Z,99.50
2018-12-14T15:18:39.974Z,99.70
2018-12-14T15:21:08.914Z,99.80
2018-12-14T15:23:37.771Z,99.90
2018-12-14T15:26:06.774Z,99.90
2018-12-14T15:28:35.906Z,99.90
2018-12-14T15:31:04.746Z,99.90
2018-12-14T15:33:33.613Z,99.90
2018-12-14T15:36:02.659Z,99.90
2018-12-14T15:38:31.596Z,99.90
2018-12-14T15:41:01.468Z,99.90
2018-12-14T15:43:31.577Z,99.90
2018-12-14T15:46:01.391Z,99.90
2018-12-14T15:48:30.286Z,99.90
2018-12-14T15:50:59.082Z,99.90
2018-12-14T15:53:27.909Z,99.90
2018-12-14T15:55:56.790Z,99.90
2018-12-14T15:58:25.638Z,99.90
2018-12-14T16:00:54.591Z,99.90
2018-12-14T16:03:23.533Z,99.90
2018-12-14T16:05:52.470Z,99.90
2018-12-14T16:08:22.700Z,99.90
2018-12-14T16:10:51.604Z,99.90
2018-12-14T16:13:20.472Z,99.90
2018-12-14T16:15:49.361Z,99.90
2018-12-14T16:18:20.112Z,99.90
2018-12-14T16:20:49.767Z,99.90
2018-12-14T16:23:18.668Z,99.90
2018-12-14T16:25:47.584Z,99.90
2018-12-14T16:28:17.256Z,99.90
2018-12-14T16:30:46.695Z,99.90
2018-12-14T16:33:15.509Z,99.90
2018-12-14T16:35:45.175Z,99.90
2018-12-14T16:38:13.996Z,99.90
2018-12-14T16:40:42.804Z,99.90
2018-12-14T16:43:11.697Z,99.90
2018-12-14T16:45:41.497Z,99.90
2018-12-14T16:48:10.503Z,99.90
2018-12-14T16:50:40.009Z,99.90
2018-12-14T16:53:08.921Z,99.90
2018-12-14T16:55:37.762Z,99.90
2018-12-14T16:58:06.593Z,99.90
2018-12-14T17:00:35.411Z,99.90
2018-12-14T17:03:04.707Z,99.90
2018-12-14T17:05:33.565Z,99.90
2018-12-14T17:08:02.417Z,99.90
2018-12-14T17:10:31.330Z,99.90
2018-12-14T17:13:00.164Z,99.90
2018-12-14T17:15:33.247Z,99.90
2018-12-14T17:17:59.798Z,99.90
2018-12-14T17:20:28.695Z,99.90
2018-12-14T17:22:57.590Z,99.90
2018-12-14T17:25:26.878Z,99.90
2018-12-14T17:27:55.730Z,99.90
2018-12-14T17:30:26.471Z,99.90
2018-12-14T17:32:55.369Z,99.90
2018-12-14T17:35:24.200Z,99.90
2018-12-14T17:37:53.041Z,99.90
2018-12-14T17:40:21.918Z,99.90
2018-12-14T17:42:52.699Z,99.90
2018-12-14T17:45:22.000Z,99.90
2018-12-14T17:47:50.814Z,99.90
2018-12-14T17:50:19.724Z,99.90
2018-12-14T17:52:48.542Z,99.90
2018-12-14T17:55:17.566Z,99.90
2018-12-14T17:57:46.378Z,99.90
2018-12-14T18:00:15.398Z,99.90
2018-12-14T18:02:44.234Z,99.90
2018-12-14T18:05:13.148Z,99.90
2018-12-14T18:07:42.350Z,99.90
2018-12-14T18:10:11.241Z,99.90
2018-12-14T18:12:40.130Z,99.90
2018-12-14T18:15:09.126Z,99.90
2018-12-14T18:17:38.024Z,99.90
2018-12-14T18:20:07.448Z,99.90
2018-12-14T18:22:36.585Z,99.90
2018-12-14T18:25:06.229Z,99.90
2018-12-14T18:27:35.109Z,99.90
2018-12-14T18:30:05.611Z,99.90
2018-12-14T18:32:34.518Z,99.90
2018-12-14T18:40:02.525Z,99.90
2018-12-14T18:42:32.327Z,99.90
2018-12-14T18:45:01.192Z,99.90
2018-12-14T18:47:30.241Z,99.90
2018-12-14T18:49:59.922Z,99.90
2018-12-14T18:52:28.790Z,99.90
2018-12-14T18:54:57.625Z,99.90
2018-12-14T18:57:26.470Z,99.90
2018-12-14T18:59:56.457Z,99.90
2018-12-14T19:02:25.336Z,99.90
2018-12-14T19:04:54.217Z,99.90
2018-12-14T19:07:23.035Z,99.90
2018-12-14T19:09:51.965Z,99.90
2018-12-14T19:12:21.330Z,99.90
2018-12-14T19:14:50.323Z,99.90
2018-12-14T19:17:19.214Z,99.90
2018-12-14T19:19:48.510Z,99.90
2018-12-14T19:22:19.280Z,99.90
2018-12-14T19:24:48.161Z,99.90
2018-12-14T19:27:17.040Z,99.90
2018-12-14T19:29:52.505Z,99.90
2018-12-14T19:32:21.695Z,99.90
2018-12-14T19:34:50.992Z,99.90
2018-12-14T19:37:21.380Z,99.90
2018-12-14T19:39:50.768Z,99.90
2018-12-14T19:42:19.840Z,99.80
2018-12-14T19:44:48.780Z,99.80
2018-12-14T19:47:19.449Z,99.80
2018-12-14T19:49:55.676Z,99.90
2018-12-14T19:52:37.126Z,99.90
2018-12-14T19:57:51.926Z,99.90
2018-12-14T20:00:21.904Z,99.90
2018-12-14T20:02:52.591Z,99.90
2018-12-14T20:05:22.864Z,99.90
2018-12-14T20:07:51.821Z,99.90
2018-12-14T20:10:22.915Z,99.90
2018-12-14T20:12:53.632Z,99.90
2018-12-14T20:15:24.274Z,99.90
2018-12-14T20:18:03.668Z,99.90
2018-12-14T20:20:32.830Z,99.90
2018-12-14T20:23:01.723Z,99.90
2018-12-14T20:25:31.168Z,99.90
2018-12-14T20:28:00.170Z,99.90
2018-12-14T20:30:31.641Z,99.90
2018-12-14T20:33:01.164Z,99.70
2018-12-14T20:35:30.783Z,99.60
2018-12-14T20:38:01.933Z,99.50
2018-12-14T20:40:30.815Z,99.50
2018-12-14T20:43:02.232Z,99.50
2018-12-14T20:45:31.562Z,99.50
2018-12-14T20:48:02.428Z,99.50
2018-12-14T20:50:31.340Z,99.50
2018-12-14T20:53:00.212Z,99.50
2018-12-14T20:55:29.104Z,99.50
2018-12-14T20:57:57.989Z,99.70
2018-12-14T21:00:26.975Z,99.70
2018-12-14T21:02:56.609Z,99.60
2018-12-14T21:05:25.473Z,99.60
2018-12-14T21:07:54.438Z,99.20
2018-12-14T21:10:23.290Z,99.10
2018-12-14T21:12:52.244Z,99.10
2018-12-14T21:15:21.712Z,99.00
2018-12-14T21:17:50.642Z,99.00
2018-12-14T21:20:20.703Z,99.10
2018-12-14T21:22:50.519Z,98.90
2018-12-14T21:25:20.237Z,98.70
2018-12-14T21:27:49.396Z,98.60
2018-12-14T21:32:58.902Z,98.50
2018-12-14T21:35:34.118Z,98.50
2018-12-14T21:38:07.650Z,98.00
2018-12-14T21:40:43.352Z,98.10
2018-12-14T21:43:13.365Z,98.10
2018-12-14T21:45:50.414Z,98.00
2018-12-14T21:48:20.423Z,97.50
2018-12-14T21:50:52.984Z,97.50
2018-12-14T21:53:32.671Z,97.40
2018-12-14T21:58:52.988Z,97.20
2018-12-14T22:01:23.701Z,97.20
2018-12-14T22:03:53.946Z,97.00
2018-12-14T22:06:25.636Z,97.20
2018-12-14T22:08:56.296Z,96.50
2018-12-14T22:11:38.325Z,96.20
2018-12-14T22:14:13.100Z,95.90
2018-12-14T22:16:43.696Z,95.30
2018-12-14T22:19:12.539Z,95.20
2018-12-14T22:21:41.391Z,95.40
2018-12-14T22:24:10.239Z,95.50
2018-12-14T22:26:39.133Z,95.00
2018-12-14T22:29:08.064Z,93.90
2018-12-14T22:31:36.922Z,93.60
2018-12-14T22:34:05.967Z,91.90
2018-12-14T22:36:35.768Z,90.80
2018-12-14T22:39:07.069Z,90.90
2018-12-14T22:41:36.721Z,91.70
2018-12-14T22:44:05.654Z,92.10
2018-12-14T22:46:34.672Z,91.60
2018-12-14T22:49:03.610Z,91.20
2018-12-14T22:51:32.465Z,91.60
2018-12-14T22:54:01.443Z,91.80
2018-12-14T22:56:30.282Z,91.70
2018-12-14T22:58:59.133Z,92.00
2018-12-14T23:01:28.206Z,91.90
2018-12-14T23:03:57.076Z,91.60
2018-12-14T23:06:25.931Z,90.90
2018-12-14T23:08:54.932Z,91.50
2018-12-14T23:11:23.804Z,91.60
2018-12-14T23:13:52.754Z,91.70
2018-12-14T23:16:21.587Z,91.60
2018-12-14T23:18:50.448Z,92.00
2018-12-14T23:21:19.379Z,92.10
2018-12-14T23:23:48.300Z,92.30
2018-12-14T23:26:17.209Z,92.40
2018-12-14T23:28:46.220Z,92.70
2018-12-14T23:31:15.081Z,92.80
2018-12-14T23:33:43.848Z,92.90
2018-12-14T23:36:13.051Z,93.10
2018-12-14T23:38:41.886Z,93.20
2018-12-14T23:41:10.723Z,93.30
2018-12-14T23:43:39.603Z,93.00
2018-12-14T23:46:08.463Z,93.40
2018-12-14T23:48:37.315Z,92.70
2018-12-14T23:51:06.542Z,93.10
2018-12-14T23:53:35.355Z,93.30
2018-12-14T23:56:04.282Z,93.40
2018-12-14T23:58:33.139Z,93.70
